Skip Navigation Links Skip Navigation Links

Current Weather

Nioro Du Sahel, Mali

For information only: do not use for flight planning or navigation.
Latest weather
Observation time Monday, March 19, 2018 9:00 AM GMT
Local time Monday, March 19, 2018 10:58 AM GMT
Flight conditions Visual Meteorological Conditions
Wind direction East-Northeast (60°)
Wind speed 7 mph
Visibility 6.2 mi.
Sky condition
Ceiling unlimited
Sky clear
Temperature 79°F
Dewpoint 16°F
Altimeter 29.91 in.Hg
Derived measurements
Relative humidity 9%
Heat index 79°F
Density altitude 1575 ft.
Ceiling and visibility OK.
METAR GANR 190900Z 06006KT CAVOK 26/M09 Q1013


Location code

InnerDrive.Weather 4.0.6615.0 Release CLR 4.0.30319.42000
Copyright ©2018 Inner Drive Technology. All rights reserved. Portions Copyright ©1986-2018 David Braverman.

Find weather

Site navigation

Skip Navigation Links

Place info

Page info

PayPal - The safer, easier way to pay online!

Return home.

Copyright ©2018 Inner Drive Technology. Purveyors of fine, hand-crafted computer software. Page printed 2018-03-19T10:58:05 UTC.